Liguria — IRKJ — position and weather

sailwx.info

Track history (hours):
 
Tides and Currents Weather Stations Pressure Air Temp Water Temp Dewpoint Dewpoint Depression Visibility Wind Speed Wind Dir Waves Ship Positions

Liguria

Last reported at 2014-Sep-30 07:24 UTC. Time now 2014-Sep-30 20:07 UTC.
Position N 44°18' E 008°29'.

Length 30 m.

Type: Tug. MMSI: 247228500.

Date/timePositionNaut miles runAvg speedWind from/ knotsBaromVisibWave heightAir tempDewpointWater temp
2014-Sep-30 07:24N 44°18' E 008°29'0 0.0
2014-Sep-30 03:27N 44°18' E 008°29'0 0.0
2014-Sep-30 02:09N 44°18' E 008°29'0 0.0
2014-Sep-30 01:33N 44°18' E 008°29'0 0.0
2014-Sep-30 00:24N 44°18' E 008°29'0 0.0
2014-Sep-29 23:33N 44°18' E 008°29'0 0.0
2014-Sep-29 11:25N 44°18' E 008°29'0 0.0
2014-Sep-29 03:19N 44°18' E 008°29'0 0.0
2014-Sep-29 02:28N 44°18' E 008°29'0 0.0
2014-Sep-29 01:25N 44°18' E 008°29'0 0.0
2014-Sep-29 00:31N 44°18' E 008°29'0 0.0
2014-Sep-28 23:28N 44°18' E 008°29'0 0.0
2014-Sep-28 11:32N 44°18' E 008°29'0 0.0
2014-Sep-27 07:33N 44°18' E 008°29'0 0.0
2014-Sep-27 03:24N 44°18' E 008°29'0 0.0
2014-Sep-27 02:30N 44°18' E 008°29'0 0.0
2014-Sep-27 01:33N 44°18' E 008°29'0 0.0
2014-Sep-27 00:17N 44°18' E 008°29'0 0.0
2014-Sep-26 23:33N 44°18' E 008°29'0 0.0
2014-Sep-26 19:33N 44°18' E 008°29'0 0.1
2014-Sep-26 17:19N 44°19' E 008°30'2 2.1
2014-Sep-26 16:07N 44°17' E 008°28'0 0.3
2014-Sep-26 15:33N 44°17' E 008°28'1 0.1
2014-Sep-26 07:30N 44°16' E 008°27'0 0.0
2014-Sep-26 06:18N 44°16' E 008°27'0 0.0
2014-Sep-26 05:33N 44°16' E 008°27'2 1.7
2014-Sep-26 04:33N 44°17' E 008°29'2 0.1
2014-Sep-25 15:10N 44°18' E 008°29'1 0.2
2014-Sep-25 11:33N 44°19' E 008°30'0 0.1
2014-Sep-25 10:05N 44°19' E 008°30'1 0.3
2014-Sep-25 06:28N 44°18' E 008°30'1 0.3
2014-Sep-25 04:22N 44°18' E 008°29'0 0.0
2014-Sep-24 19:08N 44°18' E 008°29'0 0.0
2014-Sep-24 18:32N 44°18' E 008°29'0 0.0
2014-Sep-24 15:29N 44°18' E 008°29'0 0.0
2014-Sep-24 14:23N 44°18' E 008°29'3 1.1
2014-Sep-24 11:33N 44°16' E 008°27'3 3.3
2014-Sep-24 10:32N 44°19' E 008°30'0 0.0
2014-Sep-24 09:27N 44°19' E 008°30'3 1.6
2014-Sep-24 07:33N 44°16' E 008°29'1 1.3
2014-Sep-24 06:33N 44°17' E 008°30'2 0.6
2014-Sep-24 04:05N 44°18' E 008°29'0 0.0
2014-Sep-23 18:31N 44°18' E 008°29'3 1.3
2014-Sep-23 16:16N 44°16' E 008°27'1 1.9
2014-Sep-23 15:31N 44°17' E 008°29'2 1.7
2014-Sep-23 14:31N 44°18' E 008°29'0 0.0
2014-Sep-23 13:25N 44°18' E 008°29'0 0.0
2014-Sep-23 10:22N 44°18' E 008°29'0 0.1
2014-Sep-23 08:18N 44°19' E 008°29'1 0.8
2014-Sep-23 07:33N 44°19' E 008°30'0 0.3
2014-Sep-23 06:33N 44°19' E 008°30'3 2.5
2014-Sep-23 05:21N 44°16' E 008°28'1 0.6
2014-Sep-23 04:29N 44°16' E 008°28'2 0.1
2014-Sep-22 11:31N 44°18' E 008°29'0 0.0
2014-Sep-22 10:22N 44°18' E 008°29'0 0.0
2014-Sep-22 07:16N 44°18' E 008°29'0 0.0
2014-Sep-22 06:28N 44°18' E 008°29'0 0.0
2014-Sep-22 04:10N 44°18' E 008°29'0 0.0
2014-Sep-21 11:30N 44°19' E 008°30'0 0.1
2014-Sep-21 10:33N 44°19' E 008°30'0 0.2
2014-Sep-21 08:07N 44°18' E 008°29'  
Track history (hours):
 
Tides and Currents Weather Stations Pressure Air Temp Water Temp Dewpoint Dewpoint Depression Visibility Wind Speed Wind Dir Waves Ship Positions

Liguria

Last reported at 2014-Sep-30 07:24 UTC. Time now 2014-Sep-30 20:07 UTC.
Position N 44°18' E 008°29'.

Length 30 m.

Type: Tug. MMSI: 247228500.

Date/timePositionNaut miles runAvg speedWind from/ knotsBaromVisibWave heightAir tempDewpointWater temp
2014-Sep-30 07:24N 44°18' E 008°29'0 0.0
2014-Sep-30 03:27N 44°18' E 008°29'0 0.0
2014-Sep-30 02:09N 44°18' E 008°29'0 0.0
2014-Sep-30 01:33N 44°18' E 008°29'0 0.0
2014-Sep-30 00:24N 44°18' E 008°29'0 0.0
2014-Sep-29 23:33N 44°18' E 008°29'0 0.0
2014-Sep-29 11:25N 44°18' E 008°29'0 0.0
2014-Sep-29 03:19N 44°18' E 008°29'0 0.0
2014-Sep-29 02:28N 44°18' E 008°29'0 0.0
2014-Sep-29 01:25N 44°18' E 008°29'0 0.0
2014-Sep-29 00:31N 44°18' E 008°29'0 0.0
2014-Sep-28 23:28N 44°18' E 008°29'0 0.0
2014-Sep-28 11:32N 44°18' E 008°29'0 0.0
2014-Sep-27 07:33N 44°18' E 008°29'0 0.0
2014-Sep-27 03:24N 44°18' E 008°29'0 0.0
2014-Sep-27 02:30N 44°18' E 008°29'0 0.0
2014-Sep-27 01:33N 44°18' E 008°29'0 0.0
2014-Sep-27 00:17N 44°18' E 008°29'0 0.0
2014-Sep-26 23:33N 44°18' E 008°29'0 0.0
2014-Sep-26 19:33N 44°18' E 008°29'0 0.1
2014-Sep-26 17:19N 44°19' E 008°30'2 2.1
2014-Sep-26 16:07N 44°17' E 008°28'0 0.3
2014-Sep-26 15:33N 44°17' E 008°28'1 0.1
2014-Sep-26 07:30N 44°16' E 008°27'0 0.0
2014-Sep-26 06:18N 44°16' E 008°27'0 0.0
2014-Sep-26 05:33N 44°16' E 008°27'2 1.7
2014-Sep-26 04:33N 44°17' E 008°29'2 0.1
2014-Sep-25 15:10N 44°18' E 008°29'1 0.2
2014-Sep-25 11:33N 44°19' E 008°30'0 0.1
2014-Sep-25 10:05N 44°19' E 008°30'1 0.3
2014-Sep-25 06:28N 44°18' E 008°30'1 0.3
2014-Sep-25 04:22N 44°18' E 008°29'0 0.0
2014-Sep-24 19:08N 44°18' E 008°29'0 0.0
2014-Sep-24 18:32N 44°18' E 008°29'0 0.0
2014-Sep-24 15:29N 44°18' E 008°29'0 0.0
2014-Sep-24 14:23N 44°18' E 008°29'3 1.1
2014-Sep-24 11:33N 44°16' E 008°27'3 3.3
2014-Sep-24 10:32N 44°19' E 008°30'0 0.0
2014-Sep-24 09:27N 44°19' E 008°30'3 1.6
2014-Sep-24 07:33N 44°16' E 008°29'1 1.3
2014-Sep-24 06:33N 44°17' E 008°30'2 0.6
2014-Sep-24 04:05N 44°18' E 008°29'0 0.0
2014-Sep-23 18:31N 44°18' E 008°29'3 1.3
2014-Sep-23 16:16N 44°16' E 008°27'1 1.9
2014-Sep-23 15:31N 44°17' E 008°29'2 1.7
2014-Sep-23 14:31N 44°18' E 008°29'0 0.0
2014-Sep-23 13:25N 44°18' E 008°29'0 0.0
2014-Sep-23 10:22N 44°18' E 008°29'0 0.1
2014-Sep-23 08:18N 44°19' E 008°29'1 0.8
2014-Sep-23 07:33N 44°19' E 008°30'0 0.3
2014-Sep-23 06:33N 44°19' E 008°30'3 2.5
2014-Sep-23 05:21N 44°16' E 008°28'1 0.6
2014-Sep-23 04:29N 44°16' E 008°28'2 0.1
2014-Sep-22 11:31N 44°18' E 008°29'0 0.0
2014-Sep-22 10:22N 44°18' E 008°29'0 0.0
2014-Sep-22 07:16N 44°18' E 008°29'0 0.0
2014-Sep-22 06:28N 44°18' E 008°29'0 0.0
2014-Sep-22 04:10N 44°18' E 008°29'0 0.0
2014-Sep-21 11:30N 44°19' E 008°30'0 0.1
2014-Sep-21 10:33N 44°19' E 008°30'0 0.2
2014-Sep-21 08:07N 44°18' E 008°29'  

Dump ship's entire track history